Paradise Park, California
Current Conditions -  °F | °C
As of 12:01 PM on Saturday 20 Dec 2014 (Local Time) from KWVI Reporting Station
Overcast Overcast  
Wind Chill: 61°   Ceiling: 9000
Heat Index: 61°   Visibility: 10mi
Dew Point: 58°   Wind: 3mph
Humidity: 90%   Direction: 110°ESE
Pressure: 30.21"   Gusts: NA
Location:  37.0412°N, 122.124°W
Report Text: KWVI 202001Z AUTO 11003KT 10SM FEW011 SCT018 OVC090 16/14 A3021 RMK AO2 T01610144 $
Loading
Personal Weather Stations






























Interactive Weather Map New forecast layout! Learn more

10-Day Weather Forecast

Advertisements
Track Severe Weather on mobile